Time;durP1;ratioP1;P1;durP2;ratioP2;P2;SDS_P1;SDS_P2;PMS_P1;PMS_P2;Temp;Humidity;BMP_temperature;BMP_pressure;BME280_temperature;BME280_humidity;BME280_pressure;Samples;Min_cycle;Max_cycle;Signal;HPM_P1;HPM_P2
2022/08/29 00:01:34;;;;;;;24.20;19.13;;;14.50;99.90;;;;;;5094976;28;20640;-79
2022/08/29 00:04:01;;;;;;;24.60;21.07;;;14.50;99.90;;;;;;5094776;28;20736;-78
2022/08/29 00:06:29;;;;;;;24.77;22.20;;;14.40;99.90;;;;;;5094661;28;20201;-79
2022/08/29 00:08:56;;;;;;;25.30;20.27;;;14.40;99.90;;;;;;5094702;28;20197;-79
2022/08/29 00:11:22;;;;;;;23.77;20.97;;;14.40;99.90;;;;;;5094550;28;20270;-79
2022/08/29 00:13:50;;;;;;;26.33;22.00;;;14.40;99.90;;;;;;5094585;28;20196;-79
2022/08/29 00:16:17;;;;;;;25.03;22.00;;;14.40;99.90;;;;;;5094772;28;20234;-80
2022/08/29 00:18:44;;;;;;;22.97;20.53;;;14.30;99.90;;;;;;5094592;28;20204;-79
2022/08/29 00:21:11;;;;;;;27.13;23.47;;;14.30;99.90;;;;;;5094561;28;20207;-79
2022/08/29 00:23:39;;;;;;;25.23;20.10;;;14.40;99.90;;;;;;5094413;28;20222;-79
2022/08/29 00:26:06;;;;;;;25.13;21.60;;;14.30;99.90;;;;;;5093029;28;20196;-79
2022/08/29 00:28:32;;;;;;;26.87;21.40;;;14.30;99.90;;;;;;5094445;28;20254;-79
2022/08/29 00:31:01;;;;;;;26.57;23.13;;;14.30;99.90;;;;;;5094415;28;20246;-79
2022/08/29 00:33:28;;;;;;;27.10;23.10;;;14.30;99.90;;;;;;5094273;28;20192;-79
2022/08/29 00:35:54;;;;;;;26.40;22.43;;;14.30;99.90;;;;;;5094229;28;20266;-79
2022/08/29 00:38:21;;;;;;;27.20;22.97;;;14.30;99.90;;;;;;5094087;28;20208;-79
2022/08/29 00:40:51;;;;;;;30.80;23.33;;;14.30;99.90;;;;;;5093905;28;20590;-79
2022/08/29 00:43:19;;;;;;;27.50;22.70;;;14.10;99.90;;;;;;5094172;28;20192;-79
2022/08/29 00:45:52;;;;;;;30.43;24.10;;;14.10;99.90;;;;;;5094034;28;20269;-79
2022/08/29 00:48:21;;;;;;;31.13;24.70;;;14.00;99.90;;;;;;5093949;28;20197;-79
2022/08/29 00:50:52;;;;;;;33.17;27.47;;;13.90;99.90;;;;;;5093824;28;20265;-79
2022/08/29 00:53:34;;;;;;;33.40;27.63;;;13.90;99.90;;;;;;5093752;28;20261;-79
2022/08/29 00:56:02;;;;;;;38.07;27.60;;;13.90;99.90;;;;;;5093588;28;20236;-79
2022/08/29 00:58:34;;;;;;;37.43;29.63;;;13.90;99.90;;;;;;5093969;28;20196;-79
2022/08/29 01:01:01;;;;;;;35.73;26.83;;;13.80;99.90;;;;;;5093579;28;20613;-79
2022/08/29 01:03:32;;;;;;;40.47;29.50;;;13.80;99.90;;;;;;5093590;28;20246;-79
2022/08/29 01:05:59;;;;;;;35.80;27.77;;;13.70;99.90;;;;;;5093833;28;20228;-79
2022/08/29 01:08:26;;;;;;;35.07;27.87;;;13.70;99.90;;;;;;5093400;28;20200;-79
2022/08/29 01:13:40;;;;;;;36.83;27.10;;;13.70;99.90;;;;;;5093448;28;20191;-79
2022/08/29 01:16:08;;;;;;;38.47;28.17;;;13.60;99.90;;;;;;5093342;28;20200;-78
2022/08/29 01:18:39;;;;;;;29.33;25.97;;;13.60;99.90;;;;;;5093538;28;20200;-79
2022/08/29 01:21:14;;;;;;;34.80;27.50;;;13.60;99.90;;;;;;5093547;28;20717;-78
2022/08/29 01:23:47;;;;;;;34.10;27.63;;;13.60;99.90;;;;;;5093387;28;20255;-79
2022/08/29 01:26:15;;;;;;;30.67;26.73;;;13.70;99.90;;;;;;5093147;28;20200;-79
2022/08/29 01:28:46;;;;;;;40.07;27.67;;;13.70;99.90;;;;;;5093048;28;20204;-78
2022/08/29 01:31:16;;;;;;;46.33;27.77;;;13.70;99.90;;;;;;5093034;28;20222;-79
2022/08/29 01:33:48;;;;;;;34.77;28.03;;;13.70;99.90;;;;;;5093219;28;20246;-79
2022/08/29 01:36:18;;;;;;;38.03;29.57;;;13.70;99.90;;;;;;5092712;28;20197;-79
2022/08/29 01:38:46;;;;;;;37.37;28.83;;;13.60;99.90;;;;;;5093056;28;20272;-79
2022/08/29 01:41:16;;;;;;;34.17;26.97;;;13.50;99.90;;;;;;5092831;28;20207;-79
2022/08/29 01:43:46;;;;;;;36.30;28.03;;;13.50;99.90;;;;;;5093154;28;20341;-79
2022/08/29 01:46:15;;;;;;;35.70;27.97;;;13.40;99.90;;;;;;5093144;28;20196;-78
2022/08/29 01:48:44;;;;;;;43.93;28.83;;;13.50;99.90;;;;;;5093215;28;20266;-78
2022/08/29 01:51:12;;;;;;;36.63;27.97;;;13.50;99.90;;;;;;5092866;28;20196;-79
2022/08/29 01:53:39;;;;;;;35.23;27.97;;;13.50;99.90;;;;;;5092827;28;20287;-79
2022/08/29 01:56:10;;;;;;;36.67;28.37;;;13.50;99.90;;;;;;5092642;28;20240;-79
2022/08/29 01:58:38;;;;;;;38.57;28.07;;;13.30;99.90;;;;;;5092823;28;20651;-79
2022/08/29 02:01:06;;;;;;;38.70;28.50;;;13.30;99.90;;;;;;5092785;28;20227;-79
2022/08/29 02:03:32;;;;;;;38.50;28.87;;;13.40;99.90;;;;;;5092731;28;20219;-79
2022/08/29 02:06:00;;;;;;;40.30;28.80;;;13.30;99.90;;;;;;5092726;28;20705;-79
2022/08/29 02:08:27;;;;;;;37.83;28.57;;;13.30;99.90;;;;;;5092972;28;20250;-79
2022/08/29 02:10:54;;;;;;;37.50;27.47;;;13.20;99.90;;;;;;5092808;28;20238;-78
2022/08/29 02:13:20;;;;;;;36.87;28.03;;;13.20;99.90;;;;;;5092687;28;20220;-79
2022/08/29 02:15:48;;;;;;;39.77;28.77;;;13.20;99.90;;;;;;5092753;28;20734;-79
2022/08/29 02:18:16;;;;;;;36.33;27.10;;;13.10;99.90;;;;;;5092804;28;20200;-79
2022/08/29 02:20:43;;;;;;;34.40;25.43;;;13.10;99.90;;;;;;5092470;28;20743;-78
2022/08/29 02:23:10;;;;;;;33.97;25.17;;;13.00;99.90;;;;;;5092504;28;20598;-78
2022/08/29 02:25:45;;;;;;;34.80;24.47;;;12.90;99.90;;;;;;5092662;28;20204;-78
2022/08/29 02:28:13;;;;;;;32.70;25.17;;;12.90;99.90;;;;;;5092932;28;20196;-79
2022/08/29 02:30:41;;;;;;;29.53;24.47;;;12.90;99.90;;;;;;5092561;28;20197;-79
2022/08/29 02:33:10;;;;;;;30.43;24.47;;;12.90;99.90;;;;;;5092350;28;20216;-79
2022/08/29 02:35:37;;;;;;;29.93;24.03;;;12.80;99.90;;;;;;5092408;28;20807;-79
2022/08/29 02:38:04;;;;;;;33.77;25.00;;;12.90;99.90;;;;;;5092616;28;20283;-79
2022/08/29 02:40:32;;;;;;;28.60;22.77;;;12.80;99.90;;;;;;5092425;28;20201;-78
2022/08/29 02:42:59;;;;;;;31.17;24.10;;;12.70;99.90;;;;;;5092404;28;20196;-79
2022/08/29 02:45:27;;;;;;;33.27;24.53;;;12.70;99.90;;;;;;5092371;28;20201;-79
2022/08/29 02:47:54;;;;;;;30.80;23.87;;;12.60;99.90;;;;;;5092152;28;20246;-79
2022/08/29 02:50:24;;;;;;;33.17;24.60;;;12.60;99.90;;;;;;5095848;28;20200;-79
2022/08/29 02:52:52;;;;;;;32.70;25.77;;;12.60;99.90;;;;;;5096287;28;20227;-79
2022/08/29 02:55:20;;;;;;;30.53;24.27;;;12.50;99.90;;;;;;5096009;28;20228;-79
2022/08/29 02:57:47;;;;;;;34.83;25.53;;;12.50;99.90;;;;;;5096052;28;20204;-79
2022/08/29 03:00:17;;;;;;;36.07;25.63;;;12.50;99.90;;;;;;5095931;28;20204;-78
2022/08/29 03:02:46;;;;;;;35.87;25.93;;;12.50;99.90;;;;;;5096171;28;20266;-79
2022/08/29 03:05:12;;;;;;;34.77;25.90;;;12.50;99.90;;;;;;5095990;28;20295;-80
2022/08/29 03:07:41;;;;;;;35.77;25.93;;;12.50;99.90;;;;;;5096026;28;20200;-79
2022/08/29 03:10:08;;;;;;;35.20;26.47;;;12.50;99.90;;;;;;5095859;28;20192;-79
2022/08/29 03:12:35;;;;;;;32.73;25.00;;;12.40;99.90;;;;;;5095663;28;20624;-79
2022/08/29 03:15:03;;;;;;;37.83;26.90;;;12.40;99.90;;;;;;5095713;28;20208;-79
2022/08/29 03:17:29;;;;;;;33.37;26.63;;;12.50;99.90;;;;;;5095852;28;20201;-79
2022/08/29 03:19:57;;;;;;;34.10;25.27;;;12.40;99.90;;;;;;5095784;28;20199;-79
2022/08/29 03:22:24;;;;;;;39.17;26.97;;;12.40;99.90;;;;;;5095655;28;20204;-79
2022/08/29 03:24:53;;;;;;;35.07;26.57;;;12.40;99.90;;;;;;5095488;28;20536;-79
2022/08/29 03:27:21;;;;;;;37.23;26.23;;;12.40;99.90;;;;;;5095423;28;20193;-79
2022/08/29 03:29:48;;;;;;;35.07;26.63;;;12.40;99.90;;;;;;5095480;28;20196;-80
2022/08/29 03:32:15;;;;;;;34.93;26.53;;;12.40;99.90;;;;;;5095351;28;20307;-79
2022/08/29 03:34:41;;;;;;;37.53;28.70;;;12.40;99.90;;;;;;5095469;28;20250;-79
2022/08/29 03:37:08;;;;;;;34.27;26.63;;;12.30;99.90;;;;;;5095292;28;20200;-79
2022/08/29 03:39:36;;;;;;;36.03;26.70;;;12.40;99.90;;;;;;5095196;28;20246;-79
2022/08/29 03:42:05;;;;;;;35.03;26.23;;;12.40;99.90;;;;;;5095008;28;20655;-79
2022/08/29 03:44:32;;;;;;;33.90;25.23;;;12.50;99.90;;;;;;5095271;28;20198;-79
2022/08/29 03:46:59;;;;;;;35.83;26.60;;;12.40;99.90;;;;;;5095205;28;20200;-79
2022/08/29 03:49:26;;;;;;;33.97;25.70;;;12.50;99.90;;;;;;5095101;28;20201;-79
2022/08/29 03:51:52;;;;;;;37.53;26.67;;;12.60;99.90;;;;;;5094954;28;20196;-79
2022/08/29 03:54:19;;;;;;;36.57;26.13;;;12.60;99.90;;;;;;5094861;28;20227;-77
2022/08/29 03:56:47;;;;;;;35.87;25.33;;;12.50;99.90;;;;;;5094807;28;20647;-77
2022/08/29 03:59:16;;;;;;;35.67;25.50;;;12.40;99.90;;;;;;5094432;28;20613;-77
2022/08/29 04:01:42;;;;;;;38.33;26.07;;;12.40;99.90;;;;;;5094869;28;20212;-78
2022/08/29 04:05:05;;;;;;;37.63;24.87;;;12.30;99.90;;;;;;5094746;28;20200;-78
2022/08/29 04:06:56;;;;;;;35.10;25.03;;;12.40;99.90;;;;;;5094482;28;20200;-77
2022/08/29 04:09:23;;;;;;;30.63;24.53;;;12.30;99.90;;;;;;5094778;28;20196;-77
2022/08/29 04:11:50;;;;;;;33.37;24.77;;;12.30;99.90;;;;;;5094497;28;20660;-77
2022/08/29 04:14:19;;;;;;;33.50;25.87;;;12.30;99.90;;;;;;5094355;28;20718;-77
2022/08/29 04:16:48;;;;;;;33.80;25.10;;;12.20;99.90;;;;;;5094570;28;20262;-77
2022/08/29 04:19:15;;;;;;;34.77;24.23;;;12.20;99.90;;;;;;5094320;28;20232;-78
2022/08/29 04:21:43;;;;;;;32.63;24.10;;;12.30;99.90;;;;;;5094363;28;20245;-78
2022/08/29 04:24:10;;;;;;;31.80;24.50;;;12.30;99.90;;;;;;5094546;28;20202;-77
2022/08/29 04:26:37;;;;;;;29.50;23.30;;;12.20;99.90;;;;;;5094413;28;20200;-77
2022/08/29 04:29:04;;;;;;;34.97;23.17;;;12.20;99.90;;;;;;5094323;28;20193;-77
2022/08/29 04:31:32;;;;;;;30.30;23.50;;;12.30;99.90;;;;;;5094367;28;20197;-77
2022/08/29 04:33:59;;;;;;;32.30;23.70;;;12.40;99.90;;;;;;5093984;28;20299;-78
2022/08/29 04:36:26;;;;;;;33.70;23.67;;;12.40;99.90;;;;;;5093987;28;20204;-77
2022/08/29 04:38:54;;;;;;;30.83;23.87;;;12.40;99.90;;;;;;5094203;28;20200;-77
2022/08/29 04:41:21;;;;;;;31.47;24.23;;;12.50;99.90;;;;;;5094227;28;20224;-77
2022/08/29 04:43:48;;;;;;;35.30;24.13;;;12.50;99.90;;;;;;5094056;28;20283;-78
2022/08/29 04:46:15;;;;;;;30.57;24.07;;;12.60;99.90;;;;;;5093860;28;20329;-77
2022/08/29 04:48:43;;;;;;;36.70;23.57;;;12.70;99.90;;;;;;5093840;28;20196;-77
2022/08/29 04:51:10;;;;;;;31.27;24.47;;;12.80;99.90;;;;;;5093967;28;20242;-77
2022/08/29 04:53:37;;;;;;;33.30;24.53;;;12.90;99.90;;;;;;5093877;28;20250;-77
2022/08/29 04:56:06;;;;;;;32.27;22.70;;;12.90;99.90;;;;;;5093450;28;20625;-77
2022/08/29 04:58:34;;;;;;;29.80;23.10;;;12.90;99.90;;;;;;5093766;28;20200;-77
2022/08/29 05:01:01;;;;;;;30.20;22.23;;;12.90;99.90;;;;;;5093657;28;20296;-77
2022/08/29 05:03:28;;;;;;;30.10;23.87;;;12.80;99.90;;;;;;5093828;28;20279;-77
2022/08/29 05:06:00;;;;;;;30.67;22.77;;;13.00;99.90;;;;;;5093797;28;20197;-77
2022/08/29 05:08:28;;;;;;;29.57;21.83;;;13.10;99.90;;;;;;5093454;28;20694;-77
2022/08/29 05:10:55;;;;;;;27.27;21.70;;;13.10;99.90;;;;;;5093014;28;20598;-77
2022/08/29 05:13:22;;;;;;;25.00;20.70;;;13.10;99.90;;;;;;5093138;28;20230;-77
2022/08/29 05:15:49;;;;;;;27.77;21.97;;;13.10;99.90;;;;;;5093328;28;20590;-78
2022/08/29 05:18:17;;;;;;;23.60;21.03;;;13.10;99.90;;;;;;5093274;28;20659;-77
2022/08/29 05:20:49;;;;;;;23.67;19.13;;;13.10;99.90;;;;;;5093412;28;20192;-77
2022/08/29 05:23:18;;;;;;;22.00;18.63;;;13.10;99.90;;;;;;5093422;28;20257;-77
2022/08/29 05:25:46;;;;;;;22.60;19.43;;;13.10;99.90;;;;;;5093265;28;20192;-77
2022/08/29 05:28:12;;;;;;;25.60;20.40;;;13.10;99.90;;;;;;5093185;28;20243;-77
2022/08/29 05:30:40;;;;;;;24.07;19.80;;;13.10;99.90;;;;;;5093147;28;20196;-77
2022/08/29 05:33:07;;;;;;;21.67;19.23;;;13.00;99.90;;;;;;5093226;28;20258;-77
2022/08/29 05:35:35;;;;;;;22.47;19.17;;;13.20;99.90;;;;;;5093182;28;20205;-77
2022/08/29 05:38:02;;;;;;;20.73;18.63;;;13.30;99.90;;;;;;5093060;28;20196;-77
2022/08/29 05:40:30;;;;;;;21.17;17.93;;;13.30;99.90;;;;;;5092799;28;20200;-77
2022/08/29 05:42:57;;;;;;;20.90;17.83;;;13.40;99.90;;;;;;5092820;28;20200;-77
2022/08/29 05:45:24;;;;;;;20.97;18.77;;;13.40;99.90;;;;;;5093031;28;20245;-77
2022/08/29 05:47:50;;;;;;;22.37;19.53;;;13.40;99.90;;;;;;5092996;28;20237;-77
2022/08/29 05:50:17;;;;;;;24.50;18.93;;;13.50;99.90;;;;;;5092898;28;20210;-77
2022/08/29 05:52:44;;;;;;;19.03;17.03;;;13.60;99.90;;;;;;5092612;28;20246;-76
2022/08/29 05:55:11;;;;;;;18.87;16.97;;;13.80;99.90;;;;;;5092395;28;20228;-77
2022/08/29 05:57:39;;;;;;;20.13;17.67;;;13.90;99.90;;;;;;5092899;28;20201;-77
2022/08/29 06:00:08;;;;;;;18.30;16.40;;;13.90;99.90;;;;;;5093053;28;20253;-77
2022/08/29 06:02:35;;;;;;;21.43;16.87;;;14.00;99.90;;;;;;5093235;28;20224;-77
2022/08/29 06:05:03;;;;;;;18.33;16.33;;;14.10;99.90;;;;;;5093292;28;20241;-77
2022/08/29 06:07:31;;;;;;;17.07;15.30;;;14.20;99.90;;;;;;5092871;28;20196;-77
2022/08/29 06:09:58;;;;;;;17.33;15.47;;;14.20;99.90;;;;;;5092646;28;20193;-77
2022/08/29 06:12:25;;;;;;;17.47;15.67;;;14.20;99.90;;;;;;5092866;28;20197;-77
2022/08/29 06:14:53;;;;;;;17.03;14.63;;;14.30;99.90;;;;;;5092605;28;20220;-77
2022/08/29 06:17:20;;;;;;;18.60;15.90;;;14.40;99.90;;;;;;5092678;28;20204;-77
2022/08/29 06:19:49;;;;;;;20.40;17.63;;;14.50;99.90;;;;;;5092636;28;20281;-77
2022/08/29 06:22:18;;;;;;;25.10;21.20;;;14.70;99.90;;;;;;5092603;28;20196;-77
2022/08/29 06:24:45;;;;;;;22.80;20.27;;;14.90;99.90;;;;;;5096893;28;20200;-77
2022/08/29 06:27:12;;;;;;;27.13;22.07;;;15.10;99.90;;;;;;5096843;28;20261;-77
2022/08/29 06:29:39;;;;;;;26.03;22.13;;;15.30;99.90;;;;;;5096567;28;20200;-77
2022/08/29 06:32:07;;;;;;;24.13;20.57;;;15.50;99.90;;;;;;5096629;28;20594;-77
2022/08/29 06:34:33;;;;;;;24.43;21.10;;;15.70;99.90;;;;;;5096274;28;20633;-77
2022/08/29 06:37:00;;;;;;;28.90;21.63;;;15.80;99.90;;;;;;5096353;28;20196;-77
2022/08/29 06:39:27;;;;;;;26.33;19.87;;;15.90;99.90;;;;;;5096625;28;20208;-77
2022/08/29 06:41:53;;;;;;;22.87;19.10;;;16.10;99.90;;;;;;5096558;28;20285;-77
2022/08/29 06:44:20;;;;;;;20.67;18.63;;;16.20;99.90;;;;;;5096530;28;20250;-77
2022/08/29 06:46:49;;;;;;;20.13;18.02;;;16.30;99.90;;;;;;5096331;28;20192;-77
2022/08/29 06:49:19;;;;;;;20.35;18.33;;;16.50;99.90;;;;;;5096171;28;20227;-77
2022/08/29 06:51:49;;;;;;;21.17;17.70;;;16.50;99.90;;;;;;5096113;28;20325;-77
2022/08/29 06:54:16;;;;;;;20.02;17.75;;;16.60;99.90;;;;;;5095852;28;20242;-77
2022/08/29 06:56:44;;;;;;;20.88;16.50;;;16.70;99.90;;;;;;5096349;28;20196;-77
2022/08/29 06:59:11;;;;;;;20.88;16.58;;;16.80;99.90;;;;;;5096186;28;20291;-77
2022/08/29 07:01:40;;;;;;;21.25;17.42;;;16.90;99.90;;;;;;5096069;28;20250;-77
2022/08/29 07:04:07;;;;;;;19.00;15.82;;;17.00;99.90;;;;;;5095766;28;20651;-77
2022/08/29 07:06:35;;;;;;;17.83;15.38;;;17.20;99.90;;;;;;5095712;28;20504;-77
2022/08/29 07:09:03;;;;;;;16.05;14.40;;;17.40;99.90;;;;;;5096014;28;20245;-76
2022/08/29 07:11:31;;;;;;;19.95;15.02;;;17.50;99.90;;;;;;5095822;28;20196;-77
2022/08/29 07:13:59;;;;;;;14.95;13.27;;;17.70;99.90;;;;;;5095693;28;20224;-77
2022/08/29 07:16:27;;;;;;;15.98;14.27;;;17.70;99.90;;;;;;5095841;28;20536;-77
2022/08/29 07:18:54;;;;;;;14.75;13.25;;;17.80;99.90;;;;;;5095530;28;20196;-77
2022/08/29 07:21:23;;;;;;;19.15;13.57;;;18.00;99.90;;;;;;5095773;28;20196;-77
2022/08/29 07:23:53;;;;;;;17.65;13.35;;;18.10;99.90;;;;;;5095704;28;20271;-77
2022/08/29 07:26:23;;;;;;;15.25;12.95;;;18.20;99.90;;;;;;5095824;28;20192;-77
2022/08/29 07:28:51;;;;;;;13.63;12.20;;;18.30;99.90;;;;;;5095822;28;20203;-77
2022/08/29 07:31:18;;;;;;;13.07;11.75;;;18.60;99.90;;;;;;5095274;28;20212;-77
2022/08/29 07:33:45;;;;;;;12.68;11.48;;;18.80;99.90;;;;;;5095508;28;20224;-78
2022/08/29 07:36:11;;;;;;;13.13;11.85;;;19.00;99.90;;;;;;5094906;28;20627;-77
2022/08/29 07:38:38;;;;;;;12.10;10.85;;;19.30;99.90;;;;;;5095300;28;20250;-77
2022/08/29 07:41:08;;;;;;;12.55;11.18;;;19.50;99.90;;;;;;5095262;28;20685;-76
2022/08/29 07:43:36;;;;;;;13.80;10.57;;;19.60;99.90;;;;;;5095042;28;20204;-79
2022/08/29 07:46:06;;;;;;;12.07;10.63;;;19.70;99.90;;;;;;5095305;28;20257;-76
2022/08/29 07:48:33;;;;;;;14.68;11.45;;;19.80;99.90;;;;;;5095303;28;20200;-75
2022/08/29 07:51:00;;;;;;;12.57;9.93;;;19.90;99.90;;;;;;5095233;28;20196;-79
2022/08/29 07:53:27;;;;;;;12.63;10.68;;;19.80;99.90;;;;;;5095123;28;20212;-79
2022/08/29 07:55:53;;;;;;;13.05;9.90;;;19.70;99.90;;;;;;5094794;28;20282;-79
2022/08/29 07:58:21;;;;;;;11.02;9.85;;;19.70;99.90;;;;;;5094830;28;20659;-78
2022/08/29 08:00:48;;;;;;;10.82;9.73;;;20.00;99.90;;;;;;5095156;28;20249;-78
2022/08/29 08:03:14;;;;;;;10.88;9.43;;;20.20;99.90;;;;;;5094975;28;20196;-78
2022/08/29 08:05:41;;;;;;;12.82;9.77;;;20.50;99.90;;;;;;5094669;28;20486;-78
2022/08/29 08:08:08;;;;;;;13.00;9.02;;;20.80;99.90;;;;;;5094817;28;20193;-78
2022/08/29 08:10:37;;;;;;;12.95;9.20;;;21.00;99.90;;;;;;5094783;28;20205;-78
2022/08/29 08:13:04;;;;;;;11.13;9.63;;;21.20;99.90;;;;;;5094703;28;20197;-79
2022/08/29 08:15:32;;;;;;;11.27;8.45;;;21.50;99.90;;;;;;5094630;28;20228;-79
2022/08/29 08:17:59;;;;;;;11.95;8.50;;;21.60;99.90;;;;;;5094507;28;20200;-78
2022/08/29 08:20:26;;;;;;;11.57;8.75;;;21.80;99.90;;;;;;5094618;28;20200;-78
2022/08/29 08:22:52;;;;;;;12.13;8.13;;;21.90;99.90;;;;;;5094570;28;20196;-79
2022/08/29 08:25:19;;;;;;;14.30;9.15;;;21.90;99.90;;;;;;5094288;28;20249;-78
2022/08/29 08:27:45;;;;;;;11.25;8.93;;;22.00;99.90;;;;;;5094660;28;20253;-78
2022/08/29 08:30:13;;;;;;;10.48;8.20;;;22.20;99.90;;;;;;5094530;28;20606;-79
2022/08/29 08:32:41;;;;;;;11.55;8.77;;;22.30;99.90;;;;;;5094374;28;20200;-78
2022/08/29 08:35:10;;;;;;;9.88;8.88;;;22.40;99.90;;;;;;5094382;28;20223;-79
2022/08/29 08:37:36;;;;;;;10.40;8.98;;;22.50;99.90;;;;;;5094181;28;20219;-78
2022/08/29 08:40:04;;;;;;;13.32;9.25;;;22.50;99.90;;;;;;5093948;28;20204;-78
2022/08/29 08:42:41;;;;;;;9.80;8.75;;;22.70;99.90;;;;;;5094270;28;20545;-78
2022/08/29 08:45:10;;;;;;;10.18;8.32;;;22.90;99.90;;;;;;5094115;28;20253;-78
2022/08/29 08:47:41;;;;;;;11.80;8.32;;;23.30;99.90;;;;;;5093001;28;20246;-78
2022/08/29 08:50:14;;;;;;;9.82;7.47;;;23.40;99.90;;;;;;5093765;28;20533;-78
2022/08/29 08:52:45;;;;;;;12.05;8.68;;;23.80;99.90;;;;;;5093826;28;20245;-79
2022/08/29 08:55:22;;;;;;;10.57;7.80;;;24.00;99.90;;;;;;5093657;28;20300;-78
2022/08/29 08:57:55;;;;;;;9.80;8.50;;;24.30;99.90;;;;;;5093835;28;20651;-79
2022/08/29 09:00:21;;;;;;;10.45;8.60;;;24.40;99.90;;;;;;5093773;28;20204;-79
2022/08/29 09:03:02;;;;;;;11.07;7.93;;;24.60;99.90;;;;;;5093642;28;20559;-78
2022/08/29 09:05:39;;;;;;;10.60;7.97;;;24.80;99.90;;;;;;5093841;28;20254;-79
2022/08/29 09:08:13;;;;;;;9.43;8.43;;;25.00;99.90;;;;;;5094206;28;20196;-78
2022/08/29 09:10:53;;;;;;;9.48;7.60;;;25.20;99.90;;;;;;5094193;28;20610;-78
2022/08/29 09:13:31;;;;;;;8.85;7.22;;;25.20;99.90;;;;;;5093880;28;20651;-79
2022/08/29 09:16:00;;;;;;;11.20;7.35;;;25.60;99.90;;;;;;5093816;28;20654;-79
2022/08/29 09:18:30;;;;;;;8.07;6.82;;;25.90;99.90;;;;;;5093733;28;20201;-79
2022/08/29 09:20:59;;;;;;;7.75;6.93;;;26.30;99.90;;;;;;5093530;28;20598;-79
2022/08/29 09:23:34;;;;;;;8.40;6.60;;;26.50;99.90;;;;;;5093947;28;20200;-78
2022/08/29 09:26:00;;;;;;;12.75;7.25;;;26.80;99.90;;;;;;5093764;28;20233;-79
2022/08/29 09:28:27;;;;;;;10.95;7.10;;;26.60;99.90;;;;;;5093574;28;20204;-80
2022/08/29 09:31:23;;;;;;;10.88;7.32;;;27.00;99.90;;;;;;5093389;28;20208;-80
2022/08/29 09:33:53;;;;;;;9.32;7.40;;;27.30;99.90;;;;;;5093185;28;20245;-79
2022/08/29 09:36:43;;;;;;;7.53;6.53;;;27.60;99.90;;;;;;5093045;28;20313;-79
2022/08/29 09:39:16;;;;;;;9.73;6.70;;;27.80;99.90;;;;;;5093129;28;20199;-80
2022/08/29 09:41:43;;;;;;;8.18;6.32;;;27.70;99.90;;;;;;5093086;28;20196;-80
2022/08/29 09:44:14;;;;;;;8.98;6.32;;;27.00;99.90;;;;;;5093013;28;20246;-80
2022/08/29 09:46:42;;;;;;;8.75;6.32;;;27.60;99.90;;;;;;5092873;28;20192;-80
2022/08/29 09:49:12;;;;;;;6.60;5.60;;;28.40;99.90;;;;;;5093037;28;20196;-80
2022/08/29 09:51:43;;;;;;;7.53;5.65;;;28.80;99.90;;;;;;5092729;28;20200;-80
2022/08/29 09:54:13;;;;;;;11.82;6.22;;;29.50;99.90;;;;;;5092757;28;20232;-80
2022/08/29 09:56:48;;;;;;;7.07;5.65;;;29.60;99.90;;;;;;5092826;28;20549;-80
2022/08/29 09:59:24;;;;;;;6.88;6.20;;;30.10;99.90;;;;;;5092532;28;20200;-79
2022/08/29 10:02:11;;;;;;;6.50;5.40;;;29.80;99.90;;;;;;5092865;28;20202;-79
2022/08/29 10:04:40;;;;;;;7.05;5.78;;;30.30;99.90;;;;;;5092876;28;20257;-79
2022/08/29 10:07:16;;;;;;;7.95;6.15;;;30.70;99.90;;;;;;5092673;28;20598;-78
2022/08/29 10:09:53;;;;;;;5.88;5.22;;;30.90;99.90;;;;;;5092772;28;20256;-79
2022/08/29 10:12:27;;;;;;;7.75;6.03;;;31.10;99.90;;;;;;5092890;28;20256;-80
2022/08/29 10:14:59;;;;;;;7.05;5.00;;;31.80;99.50;;;;;;5092740;28;20224;-80
2022/08/29 10:20:16;;;;;;;6.05;5.38;;;32.30;97.30;;;;;;5092758;28;20203;-79
2022/08/29 10:22:52;;;;;;;8.60;5.50;;;32.70;95.90;;;;;;5092978;28;20256;-79
2022/08/29 10:25:28;;;;;;;5.80;5.15;;;33.40;94.90;;;;;;5092770;28;20295;-80
2022/08/29 10:28:01;;;;;;;5.95;5.05;;;33.20;93.10;;;;;;5092811;28;20566;-80
2022/08/29 10:30:33;;;;;;;7.57;4.70;;;32.20;92.10;;;;;;5092823;28;20675;-80
2022/08/29 10:33:12;;;;;;;5.47;4.80;;;32.00;92.10;;;;;;5092743;28;20643;-80
2022/08/29 10:35:45;;;;;;;7.28;4.50;;;32.50;90.60;;;;;;5092707;28;20222;-80
2022/08/29 10:38:22;;;;;;;11.20;4.82;;;32.40;89.10;;;;;;5092800;28;20192;-80
2022/08/29 10:40:54;;;;;;;7.68;4.68;;;32.10;89.20;;;;;;5092728;28;20199;-81
2022/08/29 10:43:36;;;;;;;5.97;4.78;;;32.10;87.60;;;;;;5091992;28;20245;-81
2022/08/29 10:46:34;;;;;;;6.50;4.95;;;31.40;88.20;;;;;;5093135;28;20261;-80
2022/08/29 10:49:11;;;;;;;5.70;5.10;;;30.60;88.90;;;;;;5092793;28;20200;-80
2022/08/29 10:51:54;;;;;;;6.55;4.95;;;31.80;88.50;;;;;;5093033;28;20219;-79
2022/08/29 10:54:32;;;;;;;5.30;4.38;;;32.60;84.00;;;;;;5092695;28;20265;-79
2022/08/29 10:57:01;;;;;;;7.97;4.95;;;33.60;83.90;;;;;;5092775;28;20200;-80
2022/08/29 10:59:41;;;;;;;7.28;4.82;;;35.00;79.20;;;;;;5092720;28;20661;-80
2022/08/29 11:02:15;;;;;;;5.63;4.50;;;35.20;73.00;;;;;;5093021;28;20195;-80
2022/08/29 11:04:49;;;;;;;6.75;5.28;;;35.60;71.10;;;;;;5092655;28;20740;-80
2022/08/29 11:07:21;;;;;;;7.53;4.70;;;35.00;67.30;;;;;;5092663;28;20196;-79
2022/08/29 11:09:54;;;;;;;8.13;5.40;;;33.60;67.30;;;;;;5093249;28;20351;-79
2022/08/29 11:12:26;;;;;;;6.65;5.05;;;31.10;68.50;;;;;;5096143;28;20195;-79
2022/08/29 11:14:59;;;;;;;8.82;5.03;;;30.20;74.20;;;;;;5095980;28;20261;-80
2022/08/29 11:17:31;;;;;;;7.40;5.50;;;29.50;76.60;;;;;;5095837;28;20218;-80
2022/08/29 11:20:03;;;;;;;7.03;4.93;;;29.40;79.80;;;;;;5095890;28;20470;-80
2022/08/29 11:22:35;;;;;;;7.32;4.75;;;29.50;80.30;;;;;;5095676;28;20222;-80
2022/08/29 11:25:09;;;;;;;7.25;4.72;;;29.40;80.80;;;;;;5095853;28;20204;-79
2022/08/29 11:27:43;;;;;;;5.60;4.97;;;29.20;80.60;;;;;;5095698;28;20199;-79
2022/08/29 11:30:17;;;;;;;5.68;5.05;;;29.10;79.70;;;;;;5095572;28;20546;-80
2022/08/29 11:32:57;;;;;;;6.57;4.72;;;29.40;81.70;;;;;;5095470;28;20602;-80
2022/08/29 11:35:28;;;;;;;6.28;4.78;;;29.20;79.30;;;;;;5095753;28;20297;-80
2022/08/29 11:38:43;;;;;;;5.00;4.53;;;30.80;77.30;;;;;;5095430;28;20659;-80
2022/08/29 11:41:30;;;;;;;6.40;4.72;;;32.90;74.60;;;;;;5095426;28;20204;-80
2022/08/29 11:44:07;;;;;;;6.43;4.45;;;34.00;69.80;;;;;;5095455;28;20237;-80
2022/08/29 11:46:40;;;;;;;4.53;4.13;;;35.70;63.90;;;;;;5095448;28;20257;-78
2022/08/29 11:49:36;;;;;;;7.28;4.53;;;36.70;58.70;;;;;;5095341;28;20204;-80
2022/08/29 11:52:19;;;;;;;5.57;4.03;;;37.80;53.20;;;;;;5095388;28;20200;-78
2022/08/29 11:54:52;;;;;;;5.50;3.95;;;38.10;50.70;;;;;;5095026;28;20239;-79
2022/08/29 11:57:46;;;;;;;5.32;4.57;;;39.00;46.00;;;;;;5095218;28;20558;-80
2022/08/29 12:00:49;;;;;;;5.28;3.70;;;39.10;44.00;;;;;;5095053;28;20207;-79
2022/08/29 12:03:54;;;;;;;8.05;3.90;;;39.70;42.20;;;;;;5095122;28;20205;-78
2022/08/29 12:06:41;;;;;;;5.53;3.92;;;40.40;39.30;;;;;;5095088;28;20234;-80
2022/08/29 12:09:26;;;;;;;8.27;4.28;;;40.50;37.20;;;;;;5084868;28;20655;-80
2022/08/29 12:12:26;;;;;;;6.65;4.32;;;40.70;36.30;;;;;;5094977;28;20848;-80
2022/08/29 12:14:54;;;;;;;7.57;4.80;;;38.00;36.10;;;;;;5095871;28;20200;-80
2022/08/29 12:17:43;;;;;;;6.50;5.47;;;35.00;39.30;;;;;;5095468;28;20298;-79
2022/08/29 12:20:18;;;;;;;7.18;4.95;;;32.50;43.50;;;;;;5094522;28;20677;-80
2022/08/29 12:22:52;;;;;;;6.45;4.40;;;32.20;46.10;;;;;;5094574;28;20196;-80
2022/08/29 12:25:46;;;;;;;5.03;4.53;;;31.70;46.10;;;;;;5094629;28;20261;-80
2022/08/29 12:28:43;;;;;;;5.95;4.60;;;31.70;48.70;;;;;;5092611;28;20277;-80
2022/08/29 12:31:27;;;;;;;4.70;4.25;;;31.40;49.20;;;;;;5094284;28;20200;-80
2022/08/29 12:34:07;;;;;;;5.15;4.60;;;31.20;49.50;;;;;;5094331;28;20577;-79
2022/08/29 12:36:48;;;;;;;6.95;5.18;;;31.10;50.50;;;;;;5094521;28;20225;-79
2022/08/29 12:39:26;;;;;;;5.93;5.25;;;31.00;51.00;;;;;;5094272;28;20199;-79
2022/08/29 12:42:09;;;;;;;6.15;4.63;;;31.40;51.10;;;;;;5094511;28;20558;-80
2022/08/29 12:44:38;;;;;;;6.38;4.13;;;33.60;49.40;;;;;;5094250;28;20201;-79
2022/08/29 12:47:08;;;;;;;5.07;4.53;;;35.60;45.80;;;;;;5094160;28;20651;-80
2022/08/29 12:49:47;;;;;;;5.07;4.13;;;37.40;43.00;;;;;;5094310;28;20260;-79
2022/08/29 12:52:22;;;;;;;4.95;4.20;;;39.00;38.90;;;;;;5094003;28;20200;-78
2022/08/29 12:54:49;;;;;;;5.15;4.32;;;39.30;34.50;;;;;;5093891;28;20232;-80
2022/08/29 12:57:18;;;;;;;5.97;3.90;;;38.30;34.40;;;;;;5093949;28;20199;-80